Time;durP1;ratioP1;P1;durP2;ratioP2;P2;SDS_P1;SDS_P2;PMS_P1;PMS_P2;Temp;Humidity;BMP_temperature;BMP_pressure;BME280_temperature;BME280_humidity;BME280_pressure;Samples;Min_cycle;Max_cycle;Signal;HPM_P1;HPM_P2
2022/11/14 00:00:01;;;;;;;18.30;11.20;;;;;;;9.20;77.54;101717.99;101239;1302;94470;-66
2022/11/14 00:02:50;;;;;;;17.60;10.50;;;;;;;9.18;77.70;101717.45;101128;1286;140167;-66
2022/11/14 00:05:43;;;;;;;17.30;10.40;;;;;;;9.14;77.81;101717.11;101247;1283;108478;-69
2022/11/14 00:08:33;;;;;;;16.80;10.50;;;;;;;9.14;78.11;101717.46;101220;1281;139692;-68
2022/11/14 00:11:22;;;;;;;16.90;10.10;;;;;;;9.15;77.85;101712.48;101309;1305;109033;-68
2022/11/14 00:14:12;;;;;;;17.20;10.90;;;;;;;9.12;77.97;101713.90;101221;1283;140620;-68
2022/11/14 00:17:02;;;;;;;16.30;10.00;;;;;;;9.10;78.11;101710.54;101300;1281;95337;-67
2022/11/14 00:19:51;;;;;;;17.30;10.50;;;;;;;9.07;78.05;101708.59;101157;1282;140354;-68
2022/11/14 00:22:41;;;;;;;16.50;10.50;;;;;;;9.05;78.11;101709.30;101288;1282;98881;-68
2022/11/14 00:25:31;;;;;;;17.30;10.50;;;;;;;9.10;78.46;101713.20;101170;1285;142027;-70
2022/11/14 00:28:20;;;;;;;15.70;10.10;;;;;;;9.16;78.29;101711.42;101217;1283;95443;-68
2022/11/14 00:31:11;;;;;;;17.10;10.00;;;;;;;9.11;78.06;101705.57;101203;1288;140571;-68
2022/11/14 00:34:00;;;;;;;17.30;10.40;;;;;;;9.16;78.02;101710.02;101261;1284;108420;-68
2022/11/14 00:36:49;;;;;;;17.20;10.00;;;;;;;9.19;78.06;101711.27;101142;1279;140646;-66
2022/11/14 00:39:38;;;;;;;17.10;9.90;;;;;;;9.19;78.03;101708.25;101119;1281;109022;-68
2022/11/14 00:42:28;;;;;;;15.60;9.50;;;;;;;9.17;77.83;101707.53;101079;1306;139970;-68
2022/11/14 00:45:17;;;;;;;15.30;9.40;;;;;;;9.11;78.01;101710.54;101184;1282;94780;-68
2022/11/14 00:48:07;;;;;;;15.90;9.30;;;;;;;9.12;78.28;101704.70;101172;1299;108527;-68
2022/11/14 00:50:57;;;;;;;15.70;9.30;;;;;;;9.17;77.96;101701.16;101236;1281;99461;-67
2022/11/14 00:53:46;;;;;;;15.90;9.30;;;;;;;9.15;77.92;101700.27;101209;1282;108892;-67
2022/11/14 00:56:36;;;;;;;16.50;9.70;;;;;;;9.10;78.08;101695.13;101095;1281;139465;-68
2022/11/14 00:59:26;;;;;;;16.10;9.10;;;;;;;9.10;78.05;101691.77;101180;1283;94770;-68
2022/11/14 01:02:15;;;;;;;15.50;9.20;;;;;;;9.11;78.13;101688.21;101099;1282;140366;-66
2022/11/14 01:05:05;;;;;;;14.80;9.00;;;;;;;9.11;78.46;101686.45;101184;1281;97118;-68
2022/11/14 01:07:55;;;;;;;16.10;9.60;;;;;;;9.16;78.23;101684.31;101124;1282;139400;-68
2022/11/14 01:10:46;;;;;;;16.00;9.70;;;;;;;9.25;78.18;101680.06;101168;1299;94782;-67
2022/11/14 01:13:35;;;;;;;18.30;11.00;;;;;;;9.21;77.68;101680.07;101171;1282;139325;-68
2022/11/14 01:16:25;;;;;;;17.00;10.10;;;;;;;9.15;78.09;101677.95;101140;1283;109191;-67
2022/11/14 01:19:14;;;;;;;17.90;10.50;;;;;;;9.09;78.20;101675.81;101084;1282;138982;-67
2022/11/14 01:22:04;;;;;;;18.30;11.30;;;;;;;9.02;78.43;101671.20;101236;1298;106764;-68
2022/11/14 01:24:57;;;;;;;18.10;11.40;;;;;;;9.07;78.75;101665.72;101162;1281;140542;-69
2022/11/14 01:27:46;;;;;;;16.80;10.50;;;;;;;9.06;78.61;101660.92;101278;1281;95971;-67
2022/11/14 01:30:36;;;;;;;17.60;10.50;;;;;;;9.09;78.69;101658.63;101171;1275;141346;-68
2022/11/14 01:33:25;;;;;;;18.90;10.90;;;;;;;9.16;78.89;101656.51;101275;1282;99459;-68
2022/11/14 01:36:15;;;;;;;17.00;10.30;;;;;;;9.13;78.32;101656.48;101093;1279;111079;-68
2022/11/14 01:39:05;;;;;;;17.50;10.50;;;;;;;9.04;78.58;101655.80;101153;1282;94793;-68
2022/11/14 01:41:54;;;;;;;17.70;10.00;;;;;;;8.99;78.87;101661.64;101157;1274;94396;-68
2022/11/14 01:44:49;;;;;;;17.40;10.70;;;;;;;8.96;78.97;101655.08;101157;1283;139959;-65
2022/11/14 01:47:39;;;;;;;19.10;11.30;;;;;;;8.99;79.23;101649.77;101160;1298;99418;-68
2022/11/14 01:50:29;;;;;;;16.50;10.10;;;;;;;9.03;79.14;101642.86;101082;1275;140224;-68
2022/11/14 01:53:18;;;;;;;19.80;11.40;;;;;;;9.02;79.12;101647.64;101177;1282;94397;-69
2022/11/14 01:56:09;;;;;;;18.50;11.20;;;;;;;9.03;79.49;101638.79;101026;1279;140086;-68
2022/11/14 01:59:03;;;;;;;19.80;12.00;;;;;;;9.03;78.91;101637.89;101227;1283;108508;-67
2022/11/14 02:01:56;;;;;;;19.60;11.60;;;;;;;9.00;79.30;101633.83;101143;1284;140426;-68
2022/11/14 02:04:49;;;;;;;17.70;11.20;;;;;;;8.99;79.14;101632.60;101199;1282;107943;-69
2022/11/14 02:07:40;;;;;;;19.70;12.00;;;;;;;8.96;79.43;101633.83;101116;1281;139850;-68
2022/11/14 02:10:30;;;;;;;20.80;12.20;;;;;;;8.98;79.71;101628.52;101239;1282;94312;-67
2022/11/14 02:13:19;;;;;;;20.10;12.50;;;;;;;8.99;79.53;101629.21;101149;1306;140694;-67
2022/11/14 02:16:09;;;;;;;19.20;12.60;;;;;;;9.03;79.59;101626.39;101273;1275;99495;-68
2022/11/14 02:18:59;;;;;;;20.80;13.20;;;;;;;9.03;79.61;101628.87;101129;1289;140445;-67
2022/11/14 02:21:48;;;;;;;20.70;12.30;;;;;;;9.02;79.59;101627.09;101215;1298;94829;-67
2022/11/14 02:24:37;;;;;;;19.70;12.30;;;;;;;8.94;79.77;101621.78;101097;1282;140548;-66
2022/11/14 02:27:28;;;;;;;20.10;12.70;;;;;;;8.92;79.67;101625.50;101223;1275;108560;-68
2022/11/14 02:30:20;;;;;;;19.10;11.60;;;;;;;8.88;79.89;101624.96;101101;1282;99651;-67
2022/11/14 02:33:09;;;;;;;19.30;11.40;;;;;;;8.86;80.40;101618.77;101138;1282;107948;-69
2022/11/14 02:36:00;;;;;;;18.40;11.00;;;;;;;8.92;80.16;101616.64;101162;1299;95208;-68
2022/11/14 02:38:50;;;;;;;17.40;10.50;;;;;;;8.94;80.14;101611.69;100954;1305;193617;-69
2022/11/14 02:41:39;;;;;;;16.50;10.00;;;;;;;8.92;80.03;101611.68;101151;1285;109095;-68
2022/11/14 02:44:29;;;;;;;16.60;9.70;;;;;;;8.91;80.02;101611.33;101185;1305;142226;-69
2022/11/14 02:47:18;;;;;;;14.30;9.00;;;;;;;8.86;79.98;101610.27;101228;1282;108876;-67
2022/11/14 02:50:09;;;;;;;14.10;9.40;;;;;;;8.77;80.04;101612.73;101007;1283;140817;-69
2022/11/14 02:52:59;;;;;;;15.10;9.90;;;;;;;8.65;80.42;101609.17;101213;1282;94498;-68
2022/11/14 02:55:48;;;;;;;16.10;9.80;;;;;;;8.66;80.75;101606.17;101079;1284;139428;-68
2022/11/14 02:58:37;;;;;;;13.50;9.10;;;;;;;8.67;80.56;101600.68;101237;1275;99411;-69
2022/11/14 03:01:27;;;;;;;14.40;8.60;;;;;;;8.67;80.66;101602.63;101141;1281;140786;-68
2022/11/14 03:04:17;;;;;;;12.90;7.90;;;;;;;8.71;80.99;101601.05;101207;1278;94795;-67
2022/11/14 03:07:06;;;;;;;12.60;7.50;;;;;;;8.68;80.59;101599.80;101073;1298;139732;-67
2022/11/14 03:09:56;;;;;;;12.80;7.90;;;;;;;8.64;80.81;101597.33;101157;1283;107590;-70
2022/11/14 03:12:45;;;;;;;12.60;7.60;;;;;;;8.59;80.61;101594.84;101067;1277;139919;-66
2022/11/14 03:15:38;;;;;;;12.90;7.40;;;;;;;8.58;81.12;101590.78;101231;1281;110507;-67
2022/11/14 03:18:27;;;;;;;12.20;7.50;;;;;;;8.57;80.96;101588.64;101257;1282;94320;-68
2022/11/14 03:21:20;;;;;;;12.80;7.40;;;;;;;8.61;81.25;101589.89;101141;1283;94680;-69
2022/11/14 03:24:10;;;;;;;12.30;7.00;;;;;;;8.66;80.93;101586.88;101226;1304;106970;-67
2022/11/14 03:26:59;;;;;;;12.00;6.60;;;;;;;8.64;80.54;101585.46;101101;1278;139664;-67
2022/11/14 03:29:49;;;;;;;12.00;6.80;;;;;;;8.58;80.87;101583.52;101270;1298;108912;-67
2022/11/14 03:32:38;;;;;;;11.60;6.80;;;;;;;8.62;81.14;101581.21;101130;1282;140143;-69
2022/11/14 03:35:27;;;;;;;11.10;6.50;;;;;;;8.71;80.92;101578.74;101251;1282;95332;-69
2022/11/14 03:38:17;;;;;;;10.90;6.30;;;;;;;8.73;80.22;101576.62;101198;1282;139736;-66
2022/11/14 03:41:06;;;;;;;9.90;5.90;;;;;;;8.68;80.36;101577.50;101262;1275;98294;-69
2022/11/14 03:43:56;;;;;;;11.20;7.00;;;;;;;8.62;80.70;101577.14;101140;1275;140032;-69
2022/11/14 03:46:46;;;;;;;12.50;7.10;;;;;;;8.65;80.81;101576.61;101170;1282;95334;-65
2022/11/14 03:49:35;;;;;;;11.30;6.60;;;;;;;8.72;80.85;101572.55;101137;1298;140097;-68
2022/11/14 03:52:25;;;;;;;10.90;6.30;;;;;;;8.72;80.49;101569.54;101251;1281;108611;-69
2022/11/14 03:55:15;;;;;;;10.50;5.70;;;;;;;8.71;80.47;101569.36;101115;1281;140404;-63
2022/11/14 03:58:04;;;;;;;10.60;6.20;;;;;;;8.73;80.48;101573.08;101190;1282;108966;-62
2022/11/14 04:00:55;;;;;;;10.70;6.50;;;;;;;8.77;80.64;101570.59;101142;1299;141287;-63
2022/11/14 04:03:44;;;;;;;10.60;6.10;;;;;;;8.78;80.41;101566.34;101285;1283;94299;-63
2022/11/14 04:06:34;;;;;;;9.50;6.00;;;;;;;8.73;79.91;101565.11;101169;1285;108490;-62
2022/11/14 04:09:23;;;;;;;10.10;5.80;;;;;;;8.67;80.40;101560.67;101271;1274;99109;-61
2022/11/14 04:12:12;;;;;;;9.00;5.50;;;;;;;8.66;80.33;101557.31;101266;1282;107403;-62
2022/11/14 04:15:04;;;;;;;8.80;4.90;;;;;;;8.65;80.26;101558.02;101153;1275;140156;-63
2022/11/14 04:17:53;;;;;;;9.20;5.00;;;;;;;8.59;80.45;101555.72;101261;1279;94274;-62
2022/11/14 04:20:42;;;;;;;9.90;5.80;;;;;;;8.59;80.54;101550.93;101102;1274;140028;-60
2022/11/14 04:23:32;;;;;;;9.50;5.40;;;;;;;8.58;80.57;101551.29;101208;1282;98205;-62
2022/11/14 04:26:21;;;;;;;9.70;5.50;;;;;;;8.64;80.58;101552.55;101073;1282;139929;-62
2022/11/14 04:29:10;;;;;;;9.80;5.70;;;;;;;8.60;80.38;101552.17;101253;1283;94704;-62
2022/11/14 04:32:00;;;;;;;9.70;5.50;;;;;;;8.61;80.95;101550.05;101172;1282;139964;-61
2022/11/14 04:34:49;;;;;;;9.20;5.10;;;;;;;8.66;80.60;101548.65;101224;1283;107314;-62
2022/11/14 04:37:39;;;;;;;8.20;4.90;;;;;;;8.65;80.43;101550.05;101152;1278;140207;-64
2022/11/14 04:40:28;;;;;;;8.50;4.90;;;;;;;8.62;80.38;101543.50;101308;1275;110435;-64
2022/11/14 04:43:17;;;;;;;9.10;5.10;;;;;;;8.64;80.32;101542.97;101118;1282;140243;-62
2022/11/14 04:46:07;;;;;;;8.70;5.00;;;;;;;8.58;80.26;101542.98;101245;1285;94611;-62
2022/11/14 04:48:56;;;;;;;9.00;4.80;;;;;;;8.51;80.51;101541.02;101178;1284;140227;-61
2022/11/14 04:51:46;;;;;;;8.50;4.60;;;;;;;8.48;80.60;101535.71;101214;1278;99541;-62
2022/11/14 04:54:35;;;;;;;7.90;4.60;;;;;;;8.44;80.73;101533.02;101171;1298;108935;-63
2022/11/14 04:57:25;;;;;;;8.60;4.60;;;;;;;8.48;80.82;101536.42;101242;1292;94770;-60
2022/11/14 05:00:16;;;;;;;8.20;5.00;;;;;;;8.50;80.46;101530.40;101274;1282;94772;-63
2022/11/14 05:03:05;;;;;;;9.40;5.30;;;;;;;8.46;80.58;101530.75;101167;1285;140497;-62
2022/11/14 05:05:59;;;;;;;9.10;5.20;;;;;;;8.45;80.71;101528.96;101294;1299;99467;-62
2022/11/14 05:08:49;;;;;;;9.40;4.80;;;;;;;8.48;80.82;101532.52;101117;1282;140272;-61
2022/11/14 05:11:38;;;;;;;9.20;5.10;;;;;;;8.48;80.78;101533.23;101240;1282;94423;-60
2022/11/14 05:14:27;;;;;;;9.00;5.30;;;;;;;8.51;80.81;101531.45;101176;1282;139242;-61
2022/11/14 05:17:16;;;;;;;9.00;4.80;;;;;;;8.50;80.76;101532.52;101295;1282;108521;-62
2022/11/14 05:20:07;;;;;;;8.90;4.80;;;;;;;8.45;80.29;101531.09;101226;1283;140176;-63
2022/11/14 05:22:57;;;;;;;8.10;4.80;;;;;;;8.39;80.78;101530.00;101335;1289;107791;-63
2022/11/14 05:25:46;;;;;;;7.50;4.20;;;;;;;8.40;80.70;101528.41;101165;1282;140107;-61
2022/11/14 05:28:36;;;;;;;8.20;4.50;;;;;;;8.39;80.73;101537.45;101265;1282;94442;-63
2022/11/14 05:31:25;;;;;;;8.30;4.60;;;;;;;8.38;80.71;101532.83;101182;1298;140264;-62
2022/11/14 05:34:14;;;;;;;8.50;4.40;;;;;;;8.40;80.89;101524.16;101265;1284;98769;-62
2022/11/14 05:37:04;;;;;;;8.60;4.80;;;;;;;8.42;80.61;101525.77;101169;1277;139953;-61
2022/11/14 05:39:53;;;;;;;8.20;4.50;;;;;;;8.42;80.79;101523.81;101281;1278;95812;-64
2022/11/14 05:42:42;;;;;;;7.60;4.10;;;;;;;8.45;80.51;101522.42;101231;1278;96326;-63
2022/11/14 05:45:32;;;;;;;7.90;4.50;;;;;;;8.40;80.41;101520.27;101278;1278;107901;-64
2022/11/14 05:48:21;;;;;;;7.90;4.70;;;;;;;8.37;80.63;101518.67;101280;1284;99620;-61
2022/11/14 05:51:12;;;;;;;8.30;4.70;;;;;;;8.34;80.61;101528.05;101145;1285;140121;-62
2022/11/14 05:54:02;;;;;;;8.00;5.00;;;;;;;8.35;81.02;101526.81;101263;1284;94244;-63
2022/11/14 05:56:51;;;;;;;9.40;5.70;;;;;;;8.38;80.71;101518.15;101180;1298;139756;-62
2022/11/14 05:59:41;;;;;;;8.80;5.00;;;;;;;8.41;80.94;101524.87;101284;1277;109545;-62
2022/11/14 06:02:30;;;;;;;9.60;5.60;;;;;;;8.46;80.92;101525.98;101284;1281;138902;-63
2022/11/14 06:05:20;;;;;;;9.60;5.10;;;;;;;8.45;80.36;101527.91;101291;1285;109446;-64
2022/11/14 06:08:09;;;;;;;53.00;33.20;;;;;;;8.41;80.50;101522.39;101104;1275;139604;-64
2022/11/14 06:11:03;;;;;;;10.10;5.40;;;;;;;8.42;80.77;101528.06;101294;1283;94850;-62
2022/11/14 06:13:53;;;;;;;10.20;6.10;;;;;;;8.38;80.73;101529.64;101169;1284;139719;-61
2022/11/14 06:16:42;;;;;;;9.10;5.60;;;;;;;8.38;80.72;101534.78;101241;1305;99594;-62
2022/11/14 06:19:31;;;;;;;9.40;6.00;;;;;;;8.34;80.66;101538.67;101129;1285;139698;-62
2022/11/14 06:22:21;;;;;;;10.30;6.30;;;;;;;8.32;80.70;101539.20;101208;1299;94869;-63
2022/11/14 06:25:11;;;;;;;9.40;5.50;;;;;;;8.35;80.89;101540.79;101048;1285;138666;-64
2022/11/14 06:28:01;;;;;;;10.10;5.80;;;;;;;8.40;80.89;101537.80;101268;1284;108941;-63
2022/11/14 06:30:50;;;;;;;9.00;5.30;;;;;;;8.43;80.36;101537.27;101233;1283;99348;-63
2022/11/14 06:33:40;;;;;;;9.40;5.40;;;;;;;8.37;80.44;101539.56;101161;1282;107198;-63
2022/11/14 06:36:31;;;;;;;10.20;6.00;;;;;;;8.37;80.47;101538.50;101174;1281;94284;-62
2022/11/14 06:39:20;;;;;;;10.00;5.80;;;;;;;8.35;80.53;101538.48;101216;1282;140521;-64
2022/11/14 06:42:09;;;;;;;9.90;5.70;;;;;;;8.33;80.30;101541.85;101271;1298;107106;-63
2022/11/14 06:44:58;;;;;;;9.50;5.50;;;;;;;8.37;80.80;101542.21;101101;1283;139441;-63
2022/11/14 06:47:47;;;;;;;8.80;5.60;;;;;;;8.50;80.50;101544.20;101265;1285;107875;-63
2022/11/14 06:50:37;;;;;;;10.10;5.80;;;;;;;8.59;80.27;101545.45;101058;1285;140488;-63
2022/11/14 06:53:29;;;;;;;9.20;5.30;;;;;;;8.60;79.90;101547.75;101219;1283;95108;-62
2022/11/14 06:56:20;;;;;;;9.10;5.40;;;;;;;8.57;79.47;101550.40;101113;1284;139080;-63
2022/11/14 06:59:09;;;;;;;9.30;5.00;;;;;;;8.49;79.18;101555.01;101282;1295;99476;-63
2022/11/14 07:01:58;;;;;;;7.80;4.50;;;;;;;8.45;79.24;101551.80;100768;1277;139467;-62
2022/11/14 07:04:49;;;;;;;8.40;4.90;;;;;;;8.35;79.01;101558.14;101118;1278;94416;-62
2022/11/14 07:07:38;;;;;;;9.70;5.90;;;;;;;8.28;79.49;101555.83;101124;1292;140271;-63
2022/11/14 07:10:28;;;;;;;9.40;5.50;;;;;;;8.28;79.63;101553.70;101207;1292;106259;-61
2022/11/14 07:13:17;;;;;;;9.10;5.20;;;;;;;8.26;79.74;101557.23;101161;1277;140836;-62
2022/11/14 07:16:07;;;;;;;8.60;5.00;;;;;;;8.21;79.69;101556.35;101145;1291;110026;-64
2022/11/14 07:18:57;;;;;;;8.80;4.80;;;;;;;8.21;79.82;101550.85;101226;1285;94350;-64
2022/11/14 07:21:47;;;;;;;9.90;5.60;;;;;;;8.25;79.77;101545.38;101225;1281;94707;-63
2022/11/14 07:24:36;;;;;;;8.90;4.90;;;;;;;8.26;79.23;101543.61;101212;1292;108583;-63
2022/11/14 07:27:26;;;;;;;8.00;4.10;;;;;;;8.25;79.26;101543.25;101187;1282;139740;-62
2022/11/14 07:30:17;;;;;;;7.90;4.30;;;;;;;8.24;79.18;101545.38;101166;1285;108687;-63
2022/11/14 07:33:06;;;;;;;7.50;4.20;;;;;;;8.24;79.44;101539.36;100939;1277;140196;-62
2022/11/14 07:35:56;;;;;;;8.00;4.20;;;;;;;8.28;79.34;101534.77;101088;1283;94735;-63
2022/11/14 07:38:45;;;;;;;9.70;5.10;;;;;;;8.31;79.22;101534.77;101044;1299;139543;-62
2022/11/14 07:41:35;;;;;;;9.80;5.50;;;;;;;8.35;79.33;101529.65;101138;1278;99658;-64
2022/11/14 07:44:24;;;;;;;9.10;4.80;;;;;;;8.38;79.02;101535.31;101098;1277;139349;-61
2022/11/14 07:47:13;;;;;;;7.60;4.00;;;;;;;8.35;78.71;101531.41;101194;1285;94294;-64
2022/11/14 07:50:03;;;;;;;7.70;3.80;;;;;;;8.31;78.34;101532.83;101127;1285;139924;-62
2022/11/14 07:52:54;;;;;;;7.20;4.10;;;;;;;8.28;78.24;101530.17;101117;1278;108541;-62
2022/11/14 07:55:43;;;;;;;6.40;3.70;;;;;;;8.27;78.43;101530.17;101054;1285;140528;-63
2022/11/14 07:58:34;;;;;;;7.30;3.90;;;;;;;8.22;78.33;101527.86;101178;1281;108976;-62
2022/11/14 08:01:24;;;;;;;7.30;4.20;;;;;;;8.19;78.53;101524.52;101030;1298;139727;-63
2022/11/14 08:04:14;;;;;;;7.60;4.10;;;;;;;8.14;78.63;101527.50;101200;1281;95288;-62
2022/11/14 08:07:04;;;;;;;7.20;3.80;;;;;;;8.13;78.90;101527.85;101201;1283;108598;-61
2022/11/14 08:09:53;;;;;;;7.50;4.00;;;;;;;8.13;78.94;101526.06;101229;1298;99373;-62
2022/11/14 08:12:43;;;;;;;7.40;3.80;;;;;;;8.13;79.05;101525.38;101230;1292;109504;-61
2022/11/14 08:15:32;;;;;;;7.30;3.90;;;;;;;8.20;78.24;101527.69;101118;1283;140307;-61
2022/11/14 08:18:22;;;;;;;7.80;4.10;;;;;;;8.19;77.87;101521.67;101287;1304;94821;-63
2022/11/14 08:21:11;;;;;;;6.70;3.60;;;;;;;8.19;77.94;101519.00;101197;1298;139918;-62
2022/11/14 08:24:01;;;;;;;7.20;4.30;;;;;;;8.20;77.90;101515.64;101271;1298;98356;-62
2022/11/14 08:26:50;;;;;;;7.40;4.00;;;;;;;8.26;77.68;101510.89;101096;1278;139933;-62
2022/11/14 08:29:39;;;;;;;7.10;4.20;;;;;;;8.31;77.94;101508.23;101302;1299;94287;-63
2022/11/14 08:32:29;;;;;;;7.10;4.50;;;;;;;8.34;77.80;101505.05;101187;1292;138945;-65
2022/11/14 08:35:18;;;;;;;8.10;4.40;;;;;;;8.39;77.94;101504.70;101190;1277;110543;-63
2022/11/14 08:38:07;;;;;;;6.90;4.00;;;;;;;8.39;77.36;101503.10;101164;1285;139524;-62
2022/11/14 08:40:59;;;;;;;6.10;3.70;;;;;;;8.34;77.52;101499.56;101165;1285;107724;-62
2022/11/14 08:43:48;;;;;;;6.80;3.60;;;;;;;8.30;77.49;101502.04;101122;1284;139673;-63
2022/11/14 08:46:38;;;;;;;6.90;3.40;;;;;;;8.29;77.49;101499.56;101350;1301;94414;-63
2022/11/14 08:49:28;;;;;;;7.00;4.20;;;;;;;8.30;77.25;101495.14;101144;1298;139357;-63
2022/11/14 08:52:17;;;;;;;6.60;3.90;;;;;;;8.30;77.37;101493.55;101243;1291;100024;-64
2022/11/14 08:55:08;;;;;;;7.10;4.30;;;;;;;8.29;77.51;101490.18;101237;1284;109235;-63
2022/11/14 08:57:57;;;;;;;7.30;4.10;;;;;;;8.30;77.68;101487.71;101164;1278;94290;-63
2022/11/14 09:00:46;;;;;;;7.80;4.00;;;;;;;8.29;77.63;101490.54;101254;1286;94752;-63
2022/11/14 09:03:36;;;;;;;7.80;4.30;;;;;;;8.31;77.91;101486.83;101115;1286;139957;-64
2022/11/14 09:06:25;;;;;;;8.20;4.90;;;;;;;8.36;77.80;101486.99;101344;1298;99265;-62
2022/11/14 09:09:15;;;;;;;9.00;5.30;;;;;;;8.29;77.78;101485.41;101150;1282;139209;-63
2022/11/14 09:12:05;;;;;;;7.90;4.50;;;;;;;8.24;78.08;101481.85;101257;1283;94385;-63
2022/11/14 09:14:54;;;;;;;7.90;4.50;;;;;;;8.23;78.28;101477.09;101238;1282;139397;-63
2022/11/14 09:17:45;;;;;;;7.80;4.40;;;;;;;8.17;78.29;101473.36;101374;1274;107337;-63
2022/11/14 09:20:34;;;;;;;6.70;3.80;;;;;;;8.14;78.00;101473.19;101177;1281;139629;-62
2022/11/14 09:23:28;;;;;;;7.20;3.90;;;;;;;8.10;77.96;101473.54;101337;1285;108923;-61
2022/11/14 09:26:19;;;;;;;6.40;3.50;;;;;;;8.08;77.94;101469.29;101181;1299;139689;-63
2022/11/14 09:29:08;;;;;;;6.90;3.90;;;;;;;8.07;77.61;101462.21;101314;1298;95537;-63
2022/11/14 09:31:58;;;;;;;7.00;4.00;;;;;;;8.08;77.46;101460.98;101094;1306;139443;-63
2022/11/14 09:34:47;;;;;;;7.20;4.00;;;;;;;8.14;77.54;101461.34;101282;1285;99707;-63
2022/11/14 09:37:37;;;;;;;7.20;4.00;;;;;;;8.25;77.26;101462.21;101129;1282;140463;-64
2022/11/14 09:40:26;;;;;;;6.50;3.70;;;;;;;8.34;77.27;101459.22;101262;1292;94731;-63
2022/11/14 09:43:34;;;;;;;7.20;3.90;;;;;;;8.41;76.73;101456.91;101224;1285;96148;-62
2022/11/14 09:46:27;;;;;;;7.30;4.00;;;;;;;8.41;76.44;101455.33;101255;1281;109244;-64
2022/11/14 09:49:27;;;;;;;7.20;3.90;;;;;;;8.40;76.65;101453.36;101310;1288;97091;-64
2022/11/14 09:52:26;;;;;;;7.40;3.80;;;;;;;8.46;76.70;101449.17;101301;1281;108954;-63
2022/11/14 09:55:20;;;;;;;8.20;3.80;;;;;;;8.49;76.29;101450.92;101357;1299;95030;-63
2022/11/14 09:58:18;;;;;;;6.60;3.90;;;;;;;8.42;75.98;101447.89;101274;1299;94658;-64
2022/11/14 10:01:12;;;;;;;8.20;4.70;;;;;;;8.38;76.11;101451.97;101236;1291;107827;-63
2022/11/14 10:04:11;;;;;;;10.00;6.10;;;;;;;8.39;76.04;101445.41;101242;1281;99489;-62
2022/11/14 10:07:10;;;;;;;11.00;6.80;;;;;;;8.42;76.35;101443.12;101253;1278;109529;-63
2022/11/14 10:10:09;;;;;;;11.90;6.90;;;;;;;8.52;76.39;101444.38;101213;1282;139988;-63
2022/11/14 10:13:08;;;;;;;12.60;7.00;;;;;;;8.52;76.11;101443.67;101281;1282;94629;-62
2022/11/14 10:16:04;;;;;;;12.30;6.60;;;;;;;8.46;76.40;101441.73;101183;1299;140634;-62
2022/11/14 10:19:09;;;;;;;12.60;6.80;;;;;;;8.45;76.47;101438.16;101268;1282;99592;-63
2022/11/14 10:22:16;;;;;;;11.40;6.20;;;;;;;8.50;76.22;101439.26;101137;1277;139031;-65
2022/11/14 10:25:22;;;;;;;9.00;5.10;;;;;;;8.49;76.20;101432.00;101207;1285;94397;-64
2022/11/14 10:28:29;;;;;;;9.90;5.70;;;;;;;8.48;76.18;101429.52;101235;1292;95099;-64
2022/11/14 10:31:29;;;;;;;11.10;5.50;;;;;;;8.49;76.40;101426.50;101329;1298;108609;-64
2022/11/14 10:34:26;;;;;;;10.10;5.00;;;;;;;8.54;75.88;101415.70;101334;1281;98939;-63
2022/11/14 10:37:23;;;;;;;10.80;5.70;;;;;;;8.53;75.98;101415.52;101218;1285;108973;-62
2022/11/14 10:40:18;;;;;;;10.80;5.80;;;;;;;8.52;75.69;101412.35;101253;1281;94796;-63
2022/11/14 10:43:20;;;;;;;11.50;6.10;;;;;;;8.52;76.02;101415.17;101317;1292;94749;-64
2022/11/14 10:46:16;;;;;;;12.40;7.00;;;;;;;8.59;76.05;101411.10;101196;1274;139755;-64
2022/11/14 10:49:19;;;;;;;14.90;6.20;;;;;;;8.56;75.92;101411.10;101282;1282;99565;-64
2022/11/14 10:52:13;;;;;;;14.00;6.90;;;;;;;8.49;76.12;101410.40;101193;1282;140527;-65
2022/11/14 10:55:13;;;;;;;14.40;7.70;;;;;;;8.48;76.47;101405.09;101346;1282;94697;-64
2022/11/14 10:58:08;;;;;;;14.00;7.30;;;;;;;8.53;75.92;101400.84;101144;1284;139281;-62
2022/11/14 11:00:58;;;;;;;13.50;7.30;;;;;;;8.48;76.00;101391.82;101217;1285;108086;-63
2022/11/14 11:03:48;;;;;;;11.10;6.40;;;;;;;8.50;76.02;101385.98;101259;1282;139794;-64
2022/11/14 11:06:38;;;;;;;10.00;5.90;;;;;;;8.50;75.55;101384.73;101328;1295;110748;-64
2022/11/14 11:12:44;;;;;;;8.60;4.20;;;;;;;8.43;75.12;101370.91;101292;1298;95373;-63
2022/11/14 11:15:41;;;;;;;6.00;3.30;;;;;;;8.44;75.13;101370.20;101203;1306;139990;-62
2022/11/14 11:18:33;;;;;;;6.10;3.20;;;;;;;8.41;75.15;101372.33;101383;1274;98703;-62
2022/11/14 11:21:23;;;;;;;6.50;3.90;;;;;;;8.38;74.95;101365.61;101163;1299;139554;-64
2022/11/14 11:24:29;;;;;;;6.50;3.60;;;;;;;8.37;75.10;101364.38;101248;1280;95593;-64
2022/11/14 11:27:25;;;;;;;7.30;3.80;;;;;;;8.36;75.33;101355.17;101160;1277;140184;-64
2022/11/14 11:30:23;;;;;;;6.90;3.30;;;;;;;8.39;75.70;101350.56;101286;1286;108525;-63
2022/11/14 11:33:23;;;;;;;9.60;4.60;;;;;;;8.38;75.78;101342.42;101133;1281;139868;-63
2022/11/14 11:36:17;;;;;;;6.70;3.30;;;;;;;8.44;75.78;101344.55;101194;1294;107854;-62
2022/11/14 11:39:10;;;;;;;6.60;3.40;;;;;;;8.47;75.41;101344.02;101157;1298;139685;-65
2022/11/14 11:42:06;;;;;;;5.80;3.10;;;;;;;8.49;74.99;101340.67;101221;1281;94344;-64
2022/11/14 11:45:02;;;;;;;6.90;3.60;;;;;;;8.46;74.74;101332.35;101061;1286;139275;-63
2022/11/14 11:47:58;;;;;;;6.00;3.20;;;;;;;8.46;74.87;101327.73;101235;1298;99477;-64
2022/11/14 11:50:49;;;;;;;6.50;3.30;;;;;;;8.48;74.90;101328.98;101087;1306;139875;-63
2022/11/14 11:53:42;;;;;;;6.50;3.50;;;;;;;8.48;74.89;101328.63;101010;1278;94733;-64
2022/11/14 11:56:33;;;;;;;6.30;3.30;;;;;;;8.46;75.12;101329.89;101104;1285;139632;-62
2022/11/14 11:59:32;;;;;;;6.30;3.20;;;;;;;8.46;75.20;101328.28;101127;1306;109075;-64
2022/11/14 12:02:25;;;;;;;6.50;3.60;;;;;;;8.42;74.89;101317.82;101163;1285;140451;-64
2022/11/14 12:05:18;;;;;;;7.00;3.70;;;;;;;8.34;75.37;101315.72;101062;1285;108934;-63
2022/11/14 12:08:18;;;;;;;7.50;4.00;;;;;;;8.32;75.69;101317.30;101125;1285;140810;-62
2022/11/14 12:11:14;;;;;;;8.60;4.90;;;;;;;8.30;75.94;101317.31;101241;1285;94832;-64
2022/11/14 12:14:45;;;;;;;9.90;5.60;;;;;;;8.28;75.75;101315.38;101091;1285;139812;-63
2022/11/14 12:17:54;;;;;;;11.10;7.00;;;;;;;8.29;75.66;101314.67;101292;1284;99405;-61
2022/11/14 12:20:53;;;;;;;16.20;9.70;;;;;;;8.27;75.17;101314.14;101064;1282;139719;-61
2022/11/14 12:24:15;;;;;;;21.00;13.00;;;;;;;8.23;75.15;101315.20;101184;1281;94985;-63
2022/11/14 12:27:20;;;;;;;22.50;13.00;;;;;;;8.22;75.30;101315.39;101108;1281;139453;-63
2022/11/14 12:30:17;;;;;;;26.20;15.30;;;;;;;8.15;75.63;101317.16;101277;1298;108610;-63
2022/11/14 12:33:10;;;;;;;25.80;15.90;;;;;;;8.12;76.01;101312.58;101245;1285;140548;-63
2022/11/14 12:36:02;;;;;;;26.00;14.90;;;;;;;8.12;75.98;101317.88;101224;1285;108940;-64
2022/11/14 12:38:54;;;;;;;22.20;13.70;;;;;;;8.14;75.98;101318.77;101077;1298;141871;-63
2022/11/14 12:41:44;;;;;;;17.30;10.60;;;;;;;8.12;75.88;101319.12;101258;1278;94894;-64
2022/11/14 12:44:40;;;;;;;14.60;9.30;;;;;;;8.08;75.53;101322.13;101077;1285;140355;-63
2022/11/14 12:47:30;;;;;;;16.40;10.20;;;;;;;8.02;75.67;101319.66;101238;1281;99574;-62
2022/11/14 12:50:42;;;;;;;16.30;11.00;;;;;;;8.05;75.92;101323.55;101182;1285;140505;-63
2022/11/14 12:53:42;;;;;;;12.40;8.60;;;;;;;8.06;75.56;101323.89;101192;1285;94750;-62
2022/11/14 12:57:08;;;;;;;12.80;9.20;;;;;;;7.97;75.23;101322.85;101109;1285;139327;-63
2022/11/14 13:00:07;;;;;;;14.00;9.20;;;;;;;7.88;75.40;101322.85;101191;1285;108588;-63
2022/11/14 13:03:16;;;;;;;15.50;9.00;;;;;;;7.86;75.52;101321.78;101056;1281;139702;-63
2022/11/14 13:06:10;;;;;;;17.50;10.40;;;;;;;7.86;75.47;101320.37;101302;1292;107631;-62
2022/11/14 13:09:23;;;;;;;20.10;11.70;;;;;;;7.90;75.24;101316.48;101000;1282;140254;-64